Main page
METAR-TAF:

METAR-TAF

Airports :

Guilin Liangjiang International Airport

Guilin, China

latitude: 25-20N, longitude: 110-18E, elevation: 166 m

Current weather observation

The report was made 59 minutes ago, at 09:00 UTC
Wind 6 kt from the Northeast
Temperature 13°C
Humidity 94%
Pressure 1028 hPa
Visibility: 3000 m
Few clouds at a height of 700 ft
Scattered clouds at a height of 2000 ft
Overcast at a height of 3600 ft
mist

METAR: ZGKL 210900Z 05003MPS 3000 BR FEW007 SCT020 OVC036 13/12 Q1028 BECMG FM1100 2800

Time: 17:59 (09:59 UTC)

Forecast

The report was made 6 hours and 53 minutes ago, at 03:06 UTC
Forecast valid from 21 at 06 UTC to 22 at 06 UTC
Wind 6 kt from the Northeast
Visibility: 4000 m
Scattered clouds at a height of 3000 ft
Overcast at a height of 5000 ft
light rain, mist
Temporary
from 21 at 06 UTC to 21 at 12 UTC
Visibility: 2500 m

TAF: ZGKL 210306Z 2106/2206 05003MPS 4000 -RA BR SCT030 OVC050 TX15/2107Z TN11/2122Z TEMPO 2106/2112 2500

Weather observations and forecasts of more than 4000 airports (METAR and TAF reports).

The available stations are represented by yellow and red dots on the map.

Hover mouse over dot to see the name of the station.

Then click to see weather observations and forecasts.

To change the map : click on the green buttons with a black cross to zoom in, on the green button with a dash to zoom out, or on the green arrows for adjacent maps.


METAR-TAF: